Terminal Aerodrome Forecast
Issued by NWS

Home | Current Version | Previous Version | Graphics & Text | Print | Product List | Glossary Off
Versions: 1 2 3 4 5 6 7 8 9 10 11 12 13 14

000
FTUS43 KDDC 231720
TAFHYS
TAF
KHYS 231720Z 2318/2418 29006KT P6SM SCT250
     FM232100 23006KT P6SM SCT250
     FM241200 27008KT P6SM OVC200
     FM241500 34018G28KT P6SM BKN200=

USA.gov is the U.S. government's official web portal to all federal, state and local government web resources and services.